CMA-CGM Fort Saint Pierre — FQFM — position and weather

sailwx.info

Track history (hours):
 
Tides and Currents Weather Stations Pressure Air Temp Water Temp Dewpoint Dewpoint Depression Visibility Wind Speed Wind Dir Waves Ship Positions

CMA-CGM Fort Saint Pierre

Last reported at 2014-Dec-21 13:32 UTC. Time now 2014-Dec-21 15:08 UTC.
Position N 46°32' W 003°54'.

Length 197 m; beam 30 m.

Type: Ship (hazmat cat A). MMSI: 226328000.

Date/timePositionNaut miles runAvg speedWind from/ knotsBaromVisibWave heightAir tempDewpointWater temp
2014-Dec-21 13:32N 46°32' W 003°54'1919.1
2014-Dec-21 12:32N 46°41' W 003°30'1818.4
2014-Dec-21 11:33N 46°50' W 003°07'1818.3
2014-Dec-21 10:33N 46°59' W 002°44'30 2.8
2014-Dec-21 00:04N 47°18' W 002°09'40 4.2
2014-Dec-20 14:33N 47°06' W 003°06'8011.5
2014-Dec-20 07:33N 47°48' W 004°48'1918.6
2014-Dec-20 06:33N 47°58' W 005°10'1919.0
2014-Dec-20 05:33N 48°12' W 005°31'21313.3
2014-Dec-19 13:33N 49°40' W 000°36'1918.7
2014-Dec-19 12:33N 49°33' W 000°09'8 8.0
2014-Dec-19 11:34N 49°30' E 000°02'5 4.9
2014-Dec-19 10:31N 49°28' E 000°09'0 0.0
2014-Dec-19 09:31N 49°28' E 000°09'0 0.0
2014-Dec-19 08:31N 49°28' E 000°09'0 0.0
2014-Dec-19 07:31N 49°28' E 000°09'0 0.0
2014-Dec-19 06:31N 49°28' E 000°09'0 0.0
2014-Dec-19 05:31N 49°28' E 000°09'0 0.0
2014-Dec-19 04:31N 49°28' E 000°09'0 0.0
2014-Dec-19 03:31N 49°28' E 000°09'0 0.0
2014-Dec-19 02:28N 49°28' E 000°09'0 0.0
2014-Dec-19 01:31N 49°28' E 000°09'0 0.0
2014-Dec-19 00:31N 49°28' E 000°09'0 0.0
2014-Dec-18 23:31N 49°28' E 000°09'0 0.0
2014-Dec-18 22:31N 49°28' E 000°09'0 0.0
2014-Dec-18 21:31N 49°28' E 000°09'0 0.0
2014-Dec-18 20:22N 49°28' E 000°09'0 0.0
2014-Dec-18 19:31N 49°28' E 000°09'0 0.0
2014-Dec-18 18:31N 49°28' E 000°09'0 0.0
2014-Dec-18 17:31N 49°28' E 000°09'0 0.0
2014-Dec-18 16:28N 49°28' E 000°09'0 0.0
2014-Dec-18 15:31N 49°28' E 000°09'0 0.0
2014-Dec-18 14:31N 49°28' E 000°09'0 0.0
2014-Dec-18 13:31N 49°28' E 000°09'0 0.0
2014-Dec-18 12:31N 49°28' E 000°09'0 0.0
2014-Dec-18 11:28N 49°28' E 000°09'0 0.0
2014-Dec-18 10:31N 49°28' E 000°09'0 0.0
2014-Dec-18 09:31N 49°28' E 000°09'0 0.0
2014-Dec-18 08:28N 49°28' E 000°09'1 1.6
2014-Dec-18 07:33N 49°28' E 000°07'3 2.9
2014-Dec-18 06:33N 49°27' E 000°04'1110.5
2014-Dec-18 05:33N 49°26' E 000°20'8 8.3
2014-Dec-18 04:33N 49°28' E 000°32'3 0.1
2014-Dec-17 04:29N 49°26' E 000°37'9 9.6
2014-Dec-17 03:33N 49°27' E 000°23'1212.1
2014-Dec-17 02:33N 49°26' E 000°05'8 8.3
2014-Dec-17 01:33N 49°30' W 000°07'1211.9
2014-Dec-17 00:33N 49°41' W 000°11'4614.0
2014-Dec-16 21:15N 50°27' W 000°02'1315.2
2014-Dec-16 20:24N 50°30' E 000°17'1315.3
2014-Dec-16 19:33N 50°34' E 000°37'1515.3
2014-Dec-16 18:33N 50°43' E 000°56'1615.8
2014-Dec-16 17:33N 50°53' E 001°16'1616.5
2014-Dec-16 16:33N 51°05' E 001°34'1616.2
2014-Dec-16 15:34N 51°03' E 001°60'7 7.1
2014-Dec-16 14:31N 51°01' E 002°11'0 0.0
2014-Dec-16 13:31N 51°01' E 002°11'0 0.0
2014-Dec-16 12:28N 51°01' E 002°11'0 0.0
2014-Dec-16 11:19N 51°01' E 002°11'0 0.0
2014-Dec-16 10:28N 51°01' E 002°11'0 0.0
2014-Dec-16 09:25N 51°01' E 002°11'0 0.0
2014-Dec-16 08:28N 51°01' E 002°11'0 0.0
2014-Dec-16 07:31N 51°01' E 002°11'0 0.0
2014-Dec-16 06:25N 51°01' E 002°11'0 0.0
2014-Dec-16 05:29N 51°01' E 002°11'0 0.0
2014-Dec-16 03:25N 51°01' E 002°11'0 0.0
2014-Dec-16 02:14N 51°01' E 002°11'0 0.0
2014-Dec-16 01:07N 51°01' E 002°11'0 0.0
2014-Dec-15 23:31N 51°01' E 002°11'0 0.0
2014-Dec-15 22:29N 51°01' E 002°11'0 0.0
2014-Dec-15 21:31N 51°01' E 002°11'0 0.0
2014-Dec-15 20:31N 51°01' E 002°11'0 0.0
2014-Dec-15 19:19N 51°01' E 002°11'0 0.0
2014-Dec-15 18:31N 51°01' E 002°11'0 0.0
2014-Dec-15 17:19N 51°01' E 002°11'0 0.0
2014-Dec-15 16:19N 51°01' E 002°11'0 0.0
2014-Dec-15 15:16N 51°01' E 002°11'0 0.0
2014-Dec-15 14:31N 51°01' E 002°11'0 0.0
2014-Dec-15 13:28N 51°01' E 002°11'0 0.0
2014-Dec-15 12:25N 51°01' E 002°11'0 0.0
2014-Dec-15 11:31N 51°01' E 002°11'0 0.0
2014-Dec-15 10:31N 51°01' E 002°11'0 0.0
2014-Dec-15 09:31N 51°01' E 002°11'0 0.0
2014-Dec-15 08:31N 51°01' E 002°11'0 0.0
2014-Dec-15 07:31N 51°01' E 002°11'0 0.0
2014-Dec-15 06:25N 51°01' E 002°11'0 0.0
2014-Dec-15 05:31N 51°01' E 002°11'0 0.0
2014-Dec-15 04:25N 51°01' E 002°11'1 0.6
2014-Dec-15 03:34N 51°01' E 002°11'1211.8
2014-Dec-15 02:33N 51°02' E 001°52'9 8.7
2014-Dec-15 01:33N 50°60' E 001°38'  
Track history (hours):
 
Tides and Currents Weather Stations Pressure Air Temp Water Temp Dewpoint Dewpoint Depression Visibility Wind Speed Wind Dir Waves Ship Positions

CMA-CGM Fort Saint Pierre

Last reported at 2014-Dec-21 13:32 UTC. Time now 2014-Dec-21 15:08 UTC.
Position N 46°32' W 003°54'.

Length 197 m; beam 30 m.

Type: Ship (hazmat cat A). MMSI: 226328000.

Date/timePositionNaut miles runAvg speedWind from/ knotsBaromVisibWave heightAir tempDewpointWater temp
2014-Dec-21 13:32N 46°32' W 003°54'1919.1
2014-Dec-21 12:32N 46°41' W 003°30'1818.4
2014-Dec-21 11:33N 46°50' W 003°07'1818.3
2014-Dec-21 10:33N 46°59' W 002°44'30 2.8
2014-Dec-21 00:04N 47°18' W 002°09'40 4.2
2014-Dec-20 14:33N 47°06' W 003°06'8011.5
2014-Dec-20 07:33N 47°48' W 004°48'1918.6
2014-Dec-20 06:33N 47°58' W 005°10'1919.0
2014-Dec-20 05:33N 48°12' W 005°31'21313.3
2014-Dec-19 13:33N 49°40' W 000°36'1918.7
2014-Dec-19 12:33N 49°33' W 000°09'8 8.0
2014-Dec-19 11:34N 49°30' E 000°02'5 4.9
2014-Dec-19 10:31N 49°28' E 000°09'0 0.0
2014-Dec-19 09:31N 49°28' E 000°09'0 0.0
2014-Dec-19 08:31N 49°28' E 000°09'0 0.0
2014-Dec-19 07:31N 49°28' E 000°09'0 0.0
2014-Dec-19 06:31N 49°28' E 000°09'0 0.0
2014-Dec-19 05:31N 49°28' E 000°09'0 0.0
2014-Dec-19 04:31N 49°28' E 000°09'0 0.0
2014-Dec-19 03:31N 49°28' E 000°09'0 0.0
2014-Dec-19 02:28N 49°28' E 000°09'0 0.0
2014-Dec-19 01:31N 49°28' E 000°09'0 0.0
2014-Dec-19 00:31N 49°28' E 000°09'0 0.0
2014-Dec-18 23:31N 49°28' E 000°09'0 0.0
2014-Dec-18 22:31N 49°28' E 000°09'0 0.0
2014-Dec-18 21:31N 49°28' E 000°09'0 0.0
2014-Dec-18 20:22N 49°28' E 000°09'0 0.0
2014-Dec-18 19:31N 49°28' E 000°09'0 0.0
2014-Dec-18 18:31N 49°28' E 000°09'0 0.0
2014-Dec-18 17:31N 49°28' E 000°09'0 0.0
2014-Dec-18 16:28N 49°28' E 000°09'0 0.0
2014-Dec-18 15:31N 49°28' E 000°09'0 0.0
2014-Dec-18 14:31N 49°28' E 000°09'0 0.0
2014-Dec-18 13:31N 49°28' E 000°09'0 0.0
2014-Dec-18 12:31N 49°28' E 000°09'0 0.0
2014-Dec-18 11:28N 49°28' E 000°09'0 0.0
2014-Dec-18 10:31N 49°28' E 000°09'0 0.0
2014-Dec-18 09:31N 49°28' E 000°09'0 0.0
2014-Dec-18 08:28N 49°28' E 000°09'1 1.6
2014-Dec-18 07:33N 49°28' E 000°07'3 2.9
2014-Dec-18 06:33N 49°27' E 000°04'1110.5
2014-Dec-18 05:33N 49°26' E 000°20'8 8.3
2014-Dec-18 04:33N 49°28' E 000°32'3 0.1
2014-Dec-17 04:29N 49°26' E 000°37'9 9.6
2014-Dec-17 03:33N 49°27' E 000°23'1212.1
2014-Dec-17 02:33N 49°26' E 000°05'8 8.3
2014-Dec-17 01:33N 49°30' W 000°07'1211.9
2014-Dec-17 00:33N 49°41' W 000°11'4614.0
2014-Dec-16 21:15N 50°27' W 000°02'1315.2
2014-Dec-16 20:24N 50°30' E 000°17'1315.3
2014-Dec-16 19:33N 50°34' E 000°37'1515.3
2014-Dec-16 18:33N 50°43' E 000°56'1615.8
2014-Dec-16 17:33N 50°53' E 001°16'1616.5
2014-Dec-16 16:33N 51°05' E 001°34'1616.2
2014-Dec-16 15:34N 51°03' E 001°60'7 7.1
2014-Dec-16 14:31N 51°01' E 002°11'0 0.0
2014-Dec-16 13:31N 51°01' E 002°11'0 0.0
2014-Dec-16 12:28N 51°01' E 002°11'0 0.0
2014-Dec-16 11:19N 51°01' E 002°11'0 0.0
2014-Dec-16 10:28N 51°01' E 002°11'0 0.0
2014-Dec-16 09:25N 51°01' E 002°11'0 0.0
2014-Dec-16 08:28N 51°01' E 002°11'0 0.0
2014-Dec-16 07:31N 51°01' E 002°11'0 0.0
2014-Dec-16 06:25N 51°01' E 002°11'0 0.0
2014-Dec-16 05:29N 51°01' E 002°11'0 0.0
2014-Dec-16 03:25N 51°01' E 002°11'0 0.0
2014-Dec-16 02:14N 51°01' E 002°11'0 0.0
2014-Dec-16 01:07N 51°01' E 002°11'0 0.0
2014-Dec-15 23:31N 51°01' E 002°11'0 0.0
2014-Dec-15 22:29N 51°01' E 002°11'0 0.0
2014-Dec-15 21:31N 51°01' E 002°11'0 0.0
2014-Dec-15 20:31N 51°01' E 002°11'0 0.0
2014-Dec-15 19:19N 51°01' E 002°11'0 0.0
2014-Dec-15 18:31N 51°01' E 002°11'0 0.0
2014-Dec-15 17:19N 51°01' E 002°11'0 0.0
2014-Dec-15 16:19N 51°01' E 002°11'0 0.0
2014-Dec-15 15:16N 51°01' E 002°11'0 0.0
2014-Dec-15 14:31N 51°01' E 002°11'0 0.0
2014-Dec-15 13:28N 51°01' E 002°11'0 0.0
2014-Dec-15 12:25N 51°01' E 002°11'0 0.0
2014-Dec-15 11:31N 51°01' E 002°11'0 0.0
2014-Dec-15 10:31N 51°01' E 002°11'0 0.0
2014-Dec-15 09:31N 51°01' E 002°11'0 0.0
2014-Dec-15 08:31N 51°01' E 002°11'0 0.0
2014-Dec-15 07:31N 51°01' E 002°11'0 0.0
2014-Dec-15 06:25N 51°01' E 002°11'0 0.0
2014-Dec-15 05:31N 51°01' E 002°11'0 0.0
2014-Dec-15 04:25N 51°01' E 002°11'1 0.6
2014-Dec-15 03:34N 51°01' E 002°11'1211.8
2014-Dec-15 02:33N 51°02' E 001°52'9 8.7
2014-Dec-15 01:33N 50°60' E 001°38'  

Dump ship's entire track history